createdAt,value
2019-06-07T00:00:55.657Z,0.00
2019-06-07T00:01:55.790Z,0.00
2019-06-07T00:02:55.954Z,0.00
2019-06-07T00:03:56.112Z,0.00
2019-06-07T00:04:56.287Z,0.00
2019-06-07T00:05:56.442Z,0.00
2019-06-07T00:06:56.594Z,0.00
2019-06-07T00:08:07.113Z,0.00
2019-06-07T00:08:58.898Z,0.00
2019-06-07T00:09:57.007Z,0.00
2019-06-07T00:10:57.181Z,0.00
2019-06-07T00:11:57.375Z,0.00
2019-06-07T00:12:57.516Z,0.00
2019-06-07T00:13:57.654Z,0.00
2019-06-07T00:14:57.787Z,0.00
2019-06-07T00:15:57.938Z,0.00
2019-06-07T00:16:58.110Z,0.00
2019-06-07T00:17:58.261Z,0.00
2019-06-07T00:18:58.418Z,0.00
2019-06-07T00:19:58.578Z,0.00
2019-06-07T00:20:58.747Z,0.00
2019-06-07T00:22:29.103Z,0.00
2019-06-07T00:23:01.028Z,0.00
2019-06-07T00:23:59.293Z,0.00
2019-06-07T00:24:59.444Z,0.00
2019-06-07T00:25:59.572Z,0.00
2019-06-07T00:26:59.749Z,0.00
2019-06-07T00:27:59.933Z,0.00
2019-06-07T00:29:00.137Z,0.00
2019-06-07T00:30:00.295Z,0.00
2019-06-07T00:31:00.426Z,0.00
2019-06-07T00:32:00.569Z,0.00
2019-06-07T00:33:00.741Z,0.00
2019-06-07T00:34:00.922Z,0.00
2019-06-07T00:35:01.061Z,0.00
2019-06-07T00:36:01.209Z,0.00
2019-06-07T00:37:01.373Z,0.00
2019-06-07T00:38:01.548Z,0.00
2019-06-07T00:39:01.757Z,0.00
2019-06-07T00:40:14.047Z,0.00
2019-06-07T00:41:04.037Z,0.00
2019-06-07T00:42:02.341Z,0.00
2019-06-07T00:43:02.384Z,0.00
2019-06-07T00:44:02.559Z,0.00
2019-06-07T00:45:02.736Z,0.00
2019-06-07T00:46:02.904Z,0.00
2019-06-07T00:47:03.074Z,0.00
2019-06-07T00:48:03.245Z,0.00
2019-06-07T00:49:03.442Z,0.00
2019-06-07T00:50:03.630Z,0.00
2019-06-07T00:51:03.783Z,0.00
2019-06-07T00:52:03.909Z,0.00
2019-06-07T00:53:16.883Z,0.00
2019-06-07T00:54:06.216Z,0.00
2019-06-07T00:55:04.358Z,0.00
2019-06-07T00:56:04.511Z,0.00
2019-06-07T00:57:04.681Z,0.00
2019-06-07T00:58:04.836Z,0.00
2019-06-07T00:59:11.191Z,0.00
2019-06-07T01:00:07.139Z,0.00
2019-06-07T01:01:05.244Z,0.00
2019-06-07T01:02:05.658Z,0.00
2019-06-07T01:03:06.602Z,0.00
2019-06-07T01:04:05.739Z,0.00
2019-06-07T01:05:05.920Z,0.00
2019-06-07T01:06:06.071Z,0.00
2019-06-07T01:07:06.242Z,0.00
2019-06-07T01:08:06.405Z,0.00
2019-06-07T01:09:06.596Z,0.00
2019-06-07T01:10:06.736Z,0.00
2019-06-07T01:11:06.897Z,0.00
2019-06-07T01:12:07.022Z,0.00
2019-06-07T01:13:07.163Z,0.00
2019-06-07T01:14:07.356Z,0.00
2019-06-07T01:15:07.501Z,0.00
2019-06-07T01:16:07.685Z,0.00
2019-06-07T01:17:26.554Z,0.00
2019-06-07T01:18:35.909Z,0.00
2019-06-07T01:19:10.271Z,0.00
2019-06-07T01:20:08.396Z,0.00
2019-06-07T01:21:08.583Z,0.00
2019-06-07T01:22:08.743Z,0.00
2019-06-07T01:23:51.765Z,0.00
2019-06-07T01:24:12.540Z,0.00
2019-06-07T01:25:10.193Z,0.00
2019-06-07T01:26:09.358Z,0.00
2019-06-07T01:27:09.504Z,0.00
2019-06-07T01:28:09.651Z,0.00
2019-06-07T01:29:09.837Z,0.00
2019-06-07T01:30:10.037Z,0.00
2019-06-07T01:31:10.207Z,0.00
2019-06-07T01:32:10.400Z,0.00
2019-06-07T01:33:10.549Z,0.00
2019-06-07T01:34:10.711Z,0.00
2019-06-07T01:35:10.876Z,0.00
2019-06-07T01:36:11.083Z,0.00
2019-06-07T01:37:11.156Z,0.00
2019-06-07T01:38:11.335Z,0.00
2019-06-07T01:39:11.492Z,0.00
2019-06-07T01:40:11.648Z,0.00
2019-06-07T01:41:11.836Z,0.00
2019-06-07T01:42:11.980Z,0.00
2019-06-07T01:43:12.165Z,0.00
2019-06-07T01:44:12.352Z,0.00
2019-06-07T01:45:12.511Z,0.00
2019-06-07T01:46:12.671Z,0.00
2019-06-07T01:47:12.818Z,0.00
2019-06-07T01:48:13.005Z,0.00
2019-06-07T01:49:13.142Z,0.00
2019-06-07T01:50:13.312Z,0.00
2019-06-07T01:51:13.508Z,0.00
2019-06-07T01:52:13.708Z,0.00
2019-06-07T01:53:13.885Z,0.00
2019-06-07T01:54:49.380Z,0.00
2019-06-07T01:55:16.167Z,0.00
2019-06-07T01:56:14.404Z,0.00
2019-06-07T01:57:31.038Z,0.00
2019-06-07T01:58:17.042Z,0.00
2019-06-07T01:59:14.884Z,0.00
2019-06-07T02:00:15.069Z,0.00
2019-06-07T02:01:15.236Z,0.00
2019-06-07T02:02:15.424Z,0.00
2019-06-07T02:03:15.598Z,0.00
2019-06-07T02:04:15.763Z,0.00
2019-06-07T02:05:15.918Z,0.00
2019-06-07T02:06:16.096Z,0.00
2019-06-07T02:07:16.337Z,0.00
2019-06-07T02:08:16.491Z,0.00
2019-06-07T02:09:16.696Z,0.00
2019-06-07T02:10:16.846Z,0.00
2019-06-07T02:11:18.088Z,0.00
2019-06-07T02:12:28.069Z,0.00
2019-06-07T02:13:19.455Z,0.00
2019-06-07T02:14:19.237Z,0.00
2019-06-07T02:15:21.317Z,0.00
2019-06-07T02:16:19.381Z,0.00
2019-06-07T02:17:20.104Z,0.00
2019-06-07T02:18:21.787Z,0.00
2019-06-07T02:19:19.481Z,0.00
2019-06-07T02:20:20.348Z,0.00
2019-06-07T02:21:20.988Z,0.00
2019-06-07T02:22:21.472Z,0.00
2019-06-07T02:23:20.659Z,0.00
2019-06-07T02:24:23.525Z,0.00
2019-06-07T02:25:41.931Z,4.00
2019-06-07T02:26:22.952Z,4.00
2019-06-07T02:27:20.755Z,4.00
2019-06-07T02:28:29.951Z,4.00
2019-06-07T02:29:22.925Z,4.00
2019-06-07T02:30:44.057Z,0.00
2019-06-07T02:31:25.219Z,4.00
2019-06-07T02:32:25.015Z,4.00
2019-06-07T02:33:25.815Z,4.00
2019-06-07T02:34:24.929Z,4.00
2019-06-07T02:35:25.504Z,8.00
2019-06-07T02:36:26.405Z,4.00
2019-06-07T02:37:26.366Z,4.00
2019-06-07T02:38:23.102Z,8.00
2019-06-07T02:39:25.474Z,4.00
2019-06-07T02:40:24.501Z,8.00
2019-06-07T02:41:27.800Z,8.00
2019-06-07T02:42:26.132Z,8.00
2019-06-07T02:43:27.021Z,12.00
2019-06-07T02:44:28.017Z,12.00
2019-06-07T02:45:26.041Z,12.00
2019-06-07T02:46:32.542Z,16.00
2019-06-07T02:47:28.005Z,16.00
2019-06-07T02:48:27.929Z,20.00
2019-06-07T02:49:28.979Z,20.00
2019-06-07T02:50:28.307Z,20.00
2019-06-07T02:51:31.921Z,24.00
2019-06-07T02:52:30.811Z,28.00
2019-06-07T02:53:27.750Z,28.00
2019-06-07T02:54:27.421Z,32.00
2019-06-07T02:55:30.775Z,36.00
2019-06-07T02:56:42.021Z,44.00
2019-06-07T02:57:29.376Z,44.00
2019-06-07T02:58:32.494Z,52.00
2019-06-07T02:59:57.165Z,60.00
2019-06-07T03:00:45.850Z,64.00
2019-06-07T03:01:35.959Z,68.00
2019-06-07T03:02:33.553Z,80.00
2019-06-07T03:03:31.144Z,88.00
2019-06-07T03:04:29.555Z,100.00
2019-06-07T03:05:30.522Z,112.00
2019-06-07T03:06:33.267Z,124.00
2019-06-07T03:07:30.659Z,136.00
2019-06-07T03:08:30.821Z,152.00
2019-06-07T03:09:30.878Z,168.00
2019-06-07T03:10:31.395Z,188.00
2019-06-07T03:11:31.644Z,212.00
2019-06-07T03:12:33.474Z,232.00
2019-06-07T03:13:30.573Z,256.00
2019-06-07T03:14:32.085Z,280.00
2019-06-07T03:15:35.299Z,308.00
2019-06-07T03:16:36.778Z,336.00
2019-06-07T03:17:35.267Z,368.00
2019-06-07T03:18:32.188Z,400.00
2019-06-07T03:19:34.653Z,436.00
2019-06-07T03:20:34.191Z,468.00
2019-06-07T03:21:33.637Z,500.00
2019-06-07T03:22:31.950Z,532.00
2019-06-07T03:23:33.843Z,568.00
2019-06-07T03:24:33.656Z,604.00
2019-06-07T03:25:35.741Z,644.00
2019-06-07T03:26:42.488Z,684.00
2019-06-07T03:27:41.472Z,728.00
2019-06-07T03:28:36.129Z,776.00
2019-06-07T03:29:36.056Z,820.00
2019-06-07T03:30:48.699Z,868.00
2019-06-07T03:31:45.408Z,920.00
2019-06-07T03:32:42.950Z,972.00
2019-06-07T03:33:41.487Z,1028.00
2019-06-07T03:34:41.298Z,1088.00
2019-06-07T03:35:37.324Z,1152.00
2019-06-07T03:36:38.730Z,1212.00
2019-06-07T03:37:40.736Z,1276.00
2019-06-07T03:38:36.981Z,1336.00
2019-06-07T03:39:37.101Z,1392.00
2019-06-07T03:40:38.498Z,1448.00
2019-06-07T03:41:43.819Z,1500.00
2019-06-07T03:42:39.770Z,1548.00
2019-06-07T03:43:38.707Z,1592.00
2019-06-07T03:44:40.670Z,1644.00
2019-06-07T03:45:40.972Z,1692.00
2019-06-07T03:46:38.991Z,1736.00
2019-06-07T03:47:41.367Z,1772.00
2019-06-07T03:48:41.042Z,1804.00
2019-06-07T03:49:41.726Z,1836.00
2019-06-07T03:50:41.440Z,1880.00
2019-06-07T03:51:39.633Z,1924.00
2019-06-07T03:52:40.950Z,1960.00
2019-06-07T03:53:40.873Z,1996.00
2019-06-07T03:54:38.403Z,2036.00
2019-06-07T03:55:41.202Z,2072.00
2019-06-07T03:56:40.886Z,2124.00
2019-06-07T03:58:29.364Z,2176.00
2019-06-07T03:58:49.255Z,2228.00
2019-06-07T03:59:41.585Z,2280.00
2019-06-07T04:00:42.746Z,2324.00
2019-06-07T04:01:41.198Z,2360.00
2019-06-07T04:02:41.871Z,2400.00
2019-06-07T04:03:47.023Z,2420.00
2019-06-07T04:04:40.291Z,2456.00
2019-06-07T04:05:43.272Z,2500.00
2019-06-07T04:06:42.558Z,2556.00
2019-06-07T04:08:01.293Z,2676.00
2019-06-07T04:08:41.999Z,2760.00
2019-06-07T04:09:43.059Z,2788.00
2019-06-07T04:10:58.456Z,2824.00
2019-06-07T04:11:41.998Z,2896.00
2019-06-07T04:12:43.986Z,2944.00
2019-06-07T04:13:42.703Z,2924.00
2019-06-07T04:14:43.004Z,2996.00
2019-06-07T04:15:41.810Z,3080.00
2019-06-07T04:16:44.610Z,3236.00
2019-06-07T04:18:00.804Z,3368.00
2019-06-07T04:18:44.284Z,3488.00
2019-06-07T04:19:43.341Z,3524.00
2019-06-07T04:20:42.790Z,3660.00
2019-06-07T04:21:42.935Z,3812.00
2019-06-07T04:22:43.337Z,3916.00
2019-06-07T04:23:45.803Z,4004.00
2019-06-07T04:24:43.361Z,4104.00
2019-06-07T04:26:03.582Z,4192.00
2019-06-07T04:26:46.731Z,4276.00
2019-06-07T04:27:43.939Z,4368.00
2019-06-07T04:29:30.448Z,4456.00
2019-06-07T04:30:05.809Z,4524.00
2019-06-07T04:30:44.626Z,4588.00
2019-06-07T04:31:43.761Z,4652.00
2019-06-07T04:32:44.853Z,4736.00
2019-06-07T04:33:45.053Z,4820.00
2019-06-07T04:34:44.279Z,4908.00
2019-06-07T04:35:45.250Z,5032.00
2019-06-07T04:36:56.683Z,5276.00
2019-06-07T04:37:46.807Z,6172.00
2019-06-07T04:38:45.293Z,8132.00
2019-06-07T04:39:45.592Z,8096.00
2019-06-07T04:40:45.278Z,6272.00
2019-06-07T04:41:45.415Z,5836.00
2019-06-07T04:42:45.939Z,5932.00
2019-06-07T04:43:46.775Z,6016.00
2019-06-07T04:44:45.908Z,6096.00
2019-06-07T04:45:51.176Z,6160.00
2019-06-07T04:46:47.202Z,6184.00
2019-06-07T04:47:46.366Z,6252.00
2019-06-07T04:48:47.310Z,6360.00
2019-06-07T04:49:46.702Z,6696.00
2019-06-07T04:50:46.853Z,6692.00
2019-06-07T04:51:47.036Z,6672.00
2019-06-07T04:52:47.277Z,6692.00
2019-06-07T04:53:47.331Z,6904.00
2019-06-07T04:54:47.468Z,7236.00
2019-06-07T04:55:47.622Z,7584.00
2019-06-07T04:56:47.763Z,14488.00
2019-06-07T04:57:47.906Z,17184.00
2019-06-07T04:58:48.300Z,11064.00
2019-06-07T05:00:32.624Z,8588.00
2019-06-07T05:00:58.434Z,9960.00
2019-06-07T05:01:50.582Z,29568.00
2019-06-07T05:02:48.789Z,60832.00
2019-06-07T05:03:49.301Z,69440.00
2019-06-07T05:04:49.105Z,69664.00
2019-06-07T05:05:49.276Z,68480.00
2019-06-07T05:06:49.435Z,60288.00
2019-06-07T05:07:49.563Z,67488.00
2019-06-07T05:08:50.707Z,68672.00
2019-06-07T05:09:49.882Z,70848.00
2019-06-07T05:10:50.015Z,72544.00
2019-06-07T05:11:50.201Z,73888.00
2019-06-07T05:12:50.361Z,75456.00
2019-06-07T05:13:50.612Z,76032.00
2019-06-07T05:14:51.293Z,76512.00
2019-06-07T05:15:50.929Z,80224.00
2019-06-07T05:16:51.112Z,80384.00
2019-06-07T05:17:51.274Z,82144.00
2019-06-07T05:18:51.427Z,81600.00
2019-06-07T05:19:51.599Z,77920.00
2019-06-07T05:20:51.779Z,75072.00
2019-06-07T05:22:03.714Z,54528.00
2019-06-07T05:22:54.116Z,69600.00
2019-06-07T05:24:10.639Z,50336.00
2019-06-07T05:24:54.358Z,42592.00
2019-06-07T05:25:52.616Z,34496.00
2019-06-07T05:26:52.806Z,17056.00
2019-06-07T05:27:52.962Z,15460.00
2019-06-07T05:28:53.136Z,23776.00
2019-06-07T05:30:36.086Z,36288.00
2019-06-07T05:31:04.774Z,67904.00
2019-06-07T05:31:55.806Z,77632.00
2019-06-07T05:32:53.839Z,72128.00
2019-06-07T05:33:54.000Z,66720.00
2019-06-07T05:34:54.796Z,66496.00
2019-06-07T05:35:54.318Z,72544.00
2019-06-07T05:37:10.989Z,71840.00
2019-06-07T05:37:56.677Z,65088.00
2019-06-07T05:38:54.923Z,29984.00
2019-06-07T05:39:55.091Z,41792.00
2019-06-07T05:40:55.298Z,51104.00
2019-06-07T05:41:55.499Z,54784.00
2019-06-07T05:42:55.702Z,53792.00
2019-06-07T05:44:12.312Z,65056.00
2019-06-07T05:44:58.043Z,75168.00
2019-06-07T05:45:56.163Z,76192.00
2019-06-07T05:46:56.377Z,70656.00
2019-06-07T05:47:56.608Z,63808.00
2019-06-07T05:48:56.711Z,64736.00
2019-06-07T05:49:56.936Z,73472.00
2019-06-07T05:50:57.755Z,79360.00
2019-06-07T05:51:58.291Z,79264.00
2019-06-07T05:52:57.455Z,79552.00
2019-06-07T05:53:57.625Z,78592.00
2019-06-07T05:54:57.779Z,77600.00
2019-06-07T05:55:58.950Z,77472.00
2019-06-07T05:56:58.150Z,77312.00
2019-06-07T05:57:58.266Z,79264.00
2019-06-07T05:58:58.821Z,71360.00
2019-06-07T05:59:58.520Z,72256.00
2019-06-07T06:01:40.783Z,73088.00
2019-06-07T06:02:09.469Z,65408.00
2019-06-07T06:03:05.734Z,59072.00
2019-06-07T06:04:01.326Z,57888.00
2019-06-07T06:04:59.413Z,61056.00
2019-06-07T06:05:59.556Z,72160.00
2019-06-07T06:07:00.314Z,76480.00
2019-06-07T06:07:59.927Z,75744.00
2019-06-07T06:09:13.478Z,76864.00
2019-06-07T06:10:02.241Z,77600.00
2019-06-07T06:11:00.501Z,76608.00
2019-06-07T06:12:02.509Z,75424.00
2019-06-07T06:13:01.794Z,72736.00
2019-06-07T06:14:07.389Z,76672.00
2019-06-07T06:15:03.102Z,78752.00
2019-06-07T06:16:02.471Z,76896.00
2019-06-07T06:17:02.405Z,77248.00
2019-06-07T06:18:01.532Z,80480.00
2019-06-07T06:19:02.315Z,81760.00
2019-06-07T06:20:02.321Z,83680.00
2019-06-07T06:21:16.195Z,85280.00
2019-06-07T06:22:04.105Z,87968.00
2019-06-07T06:23:02.279Z,89184.00
2019-06-07T06:24:03.312Z,93696.00
2019-06-07T06:25:30.974Z,95008.00
2019-06-07T06:26:04.732Z,97056.00
2019-06-07T06:27:18.857Z,98912.00
2019-06-07T06:28:11.595Z,100736.00
2019-06-07T06:29:05.387Z,94272.00
2019-06-07T06:30:03.650Z,99168.00
2019-06-07T06:31:03.825Z,100160.00
2019-06-07T06:32:40.411Z,101216.00
2019-06-07T06:33:06.133Z,84096.00
2019-06-07T06:34:04.246Z,99296.00
2019-06-07T06:35:04.405Z,94976.00
2019-06-07T06:36:04.559Z,97920.00
2019-06-07T06:37:04.718Z,74144.00
2019-06-07T06:38:04.905Z,88032.00
2019-06-07T06:39:05.083Z,81024.00
2019-06-07T06:40:05.237Z,91424.00
2019-06-07T06:41:15.711Z,92512.00
2019-06-07T06:42:07.531Z,84832.00
2019-06-07T06:43:05.779Z,95872.00
2019-06-07T06:44:05.949Z,100288.00
2019-06-07T06:45:06.136Z,102400.00
2019-06-07T06:46:06.295Z,104512.00
2019-06-07T06:47:06.479Z,75680.00
2019-06-07T06:48:06.602Z,99840.00
2019-06-07T06:49:06.787Z,90944.00
2019-06-07T06:50:06.931Z,98336.00
2019-06-07T06:51:07.333Z,94912.00
2019-06-07T06:52:07.268Z,80192.00
2019-06-07T06:53:07.635Z,73248.00
2019-06-07T06:54:08.582Z,59328.00
2019-06-07T06:55:07.717Z,81888.00
2019-06-07T06:56:07.884Z,65120.00
2019-06-07T06:57:19.466Z,68224.00
2019-06-07T06:58:10.266Z,54912.00
2019-06-07T07:00:10.737Z,67488.00
2019-06-07T07:01:09.004Z,60032.00
2019-06-07T07:02:09.161Z,67904.00
2019-06-07T07:03:47.755Z,58464.00
2019-06-07T07:04:13.564Z,57568.00
2019-06-07T07:05:10.752Z,47712.00
2019-06-07T07:06:25.371Z,56256.00
2019-06-07T07:07:12.055Z,53600.00
2019-06-07T07:08:10.173Z,55456.00
2019-06-07T07:09:10.337Z,57568.00
2019-06-07T07:10:10.504Z,60640.00
2019-06-07T07:11:10.712Z,56960.00
2019-06-07T07:12:14.555Z,59264.00
2019-06-07T07:13:12.045Z,65792.00
2019-06-07T07:14:11.894Z,62272.00
2019-06-07T07:15:11.353Z,76064.00
2019-06-07T07:16:11.528Z,65152.00
2019-06-07T07:17:11.721Z,68992.00
2019-06-07T07:18:11.914Z,62496.00
2019-06-07T07:19:12.080Z,74112.00
2019-06-07T07:20:12.244Z,61728.00
2019-06-07T07:21:12.372Z,65792.00
2019-06-07T07:22:12.618Z,67136.00
2019-06-07T07:23:12.795Z,55648.00
2019-06-07T07:24:21.605Z,57056.00
2019-06-07T07:25:15.085Z,47584.00
2019-06-07T07:26:13.348Z,53504.00
2019-06-07T07:27:13.545Z,50752.00
2019-06-07T07:28:13.743Z,53248.00
2019-06-07T07:29:13.932Z,51328.00
2019-06-07T07:30:35.938Z,69120.00
2019-06-07T07:31:16.332Z,59680.00
2019-06-07T07:32:14.591Z,48640.00
2019-06-07T07:33:14.764Z,45312.00
2019-06-07T07:34:33.327Z,42368.00
2019-06-07T07:35:17.173Z,33632.00
2019-06-07T07:36:37.412Z,34688.00
2019-06-07T07:37:17.476Z,31136.00
2019-06-07T07:38:15.628Z,45696.00
2019-06-07T07:39:17.292Z,50208.00
2019-06-07T07:40:56.330Z,56608.00
2019-06-07T07:41:17.993Z,56448.00
2019-06-07T07:42:21.269Z,61664.00
2019-06-07T07:43:18.257Z,68160.00
2019-06-07T07:44:16.409Z,68928.00
2019-06-07T07:45:16.613Z,61664.00
2019-06-07T07:46:31.821Z,61344.00
2019-06-07T07:47:18.925Z,54880.00
2019-06-07T07:48:18.620Z,68576.00
2019-06-07T07:49:18.226Z,68640.00
2019-06-07T07:50:17.365Z,75296.00
2019-06-07T07:51:18.347Z,66176.00
2019-06-07T07:52:17.732Z,73088.00
2019-06-07T07:53:17.910Z,63008.00
2019-06-07T07:54:18.059Z,60576.00
2019-06-07T07:55:18.316Z,63968.00
2019-06-07T07:56:18.365Z,64896.00
2019-06-07T07:57:19.506Z,56160.00
2019-06-07T07:58:18.765Z,43872.00
2019-06-07T07:59:18.880Z,32096.00
2019-06-07T08:00:50.109Z,51936.00
2019-06-07T08:01:21.238Z,58336.00
2019-06-07T08:02:19.431Z,41600.00
2019-06-07T08:03:19.907Z,75712.00
2019-06-07T08:04:39.686Z,79872.00
2019-06-07T08:05:29.106Z,84704.00
2019-06-07T08:06:22.178Z,86336.00
2019-06-07T08:07:20.397Z,80896.00
2019-06-07T08:08:20.569Z,66656.00
2019-06-07T08:09:20.729Z,78944.00
2019-06-07T08:10:20.964Z,83200.00
2019-06-07T08:11:21.850Z,85312.00
2019-06-07T08:12:21.345Z,85728.00
2019-06-07T08:13:26.407Z,86336.00
2019-06-07T08:14:24.350Z,88160.00
2019-06-07T08:15:21.714Z,83264.00
2019-06-07T08:16:21.857Z,88448.00
2019-06-07T08:17:22.854Z,89216.00
2019-06-07T08:18:22.939Z,88192.00
2019-06-07T08:19:22.343Z,87264.00
2019-06-07T08:20:22.492Z,85472.00
2019-06-07T08:21:26.681Z,90080.00
2019-06-07T08:22:24.361Z,91072.00
2019-06-07T08:23:22.975Z,89472.00
2019-06-07T08:24:23.160Z,89632.00
2019-06-07T08:25:23.325Z,89600.00
2019-06-07T08:26:23.901Z,89664.00
2019-06-07T08:27:26.789Z,90816.00
2019-06-07T08:28:24.899Z,91264.00
2019-06-07T08:29:24.037Z,90560.00
2019-06-07T08:31:26.382Z,88864.00
2019-06-07T08:32:25.364Z,90528.00
2019-06-07T08:33:26.641Z,89728.00
2019-06-07T08:34:25.874Z,89376.00
2019-06-07T08:36:40.876Z,87584.00
2019-06-07T08:36:41.312Z,83680.00
2019-06-07T08:38:13.284Z,82368.00
2019-06-07T08:38:46.601Z,82656.00
2019-06-07T08:39:26.770Z,82848.00
2019-06-07T08:40:25.942Z,83456.00
2019-06-07T08:41:26.095Z,82400.00
2019-06-07T08:42:37.113Z,81792.00
2019-06-07T08:43:28.494Z,82848.00
2019-06-07T08:44:26.773Z,80928.00
2019-06-07T08:45:26.927Z,77600.00
2019-06-07T08:46:27.106Z,75136.00
2019-06-07T08:47:27.872Z,75488.00
2019-06-07T08:48:30.003Z,74688.00
2019-06-07T08:49:28.568Z,76064.00
2019-06-07T08:50:27.749Z,76640.00
2019-06-07T08:51:27.946Z,75296.00
2019-06-07T08:52:28.107Z,77472.00
2019-06-07T08:53:28.280Z,76576.00
2019-06-07T08:54:28.466Z,74944.00
2019-06-07T08:55:28.897Z,73632.00
2019-06-07T08:56:28.846Z,73888.00
2019-06-07T08:57:29.883Z,74368.00
2019-06-07T08:58:29.116Z,73760.00
2019-06-07T08:59:29.259Z,72768.00
2019-06-07T09:00:45.423Z,71648.00
2019-06-07T09:01:31.570Z,70656.00
2019-06-07T09:02:29.676Z,70528.00
2019-06-07T09:03:29.892Z,69760.00
2019-06-07T09:04:30.071Z,68864.00
2019-06-07T09:05:30.903Z,68064.00
2019-06-07T09:07:32.578Z,68320.00
2019-06-07T09:08:31.064Z,68544.00
2019-06-07T09:09:32.113Z,68000.00
2019-06-07T09:10:32.698Z,66720.00
2019-06-07T09:11:31.445Z,67584.00
2019-06-07T09:12:31.607Z,67104.00
2019-06-07T09:13:31.783Z,68064.00
2019-06-07T09:14:31.977Z,63936.00
2019-06-07T09:15:32.123Z,62528.00
2019-06-07T09:16:32.287Z,63808.00
2019-06-07T09:17:34.209Z,61760.00
2019-06-07T09:18:42.989Z,61120.00
2019-06-07T09:19:34.805Z,59712.00
2019-06-07T09:20:36.981Z,39616.00
2019-06-07T09:21:34.878Z,22304.00
2019-06-07T09:22:33.431Z,21216.00
2019-06-07T09:23:33.598Z,20800.00
2019-06-07T09:24:33.894Z,20384.00
2019-06-07T09:25:52.395Z,20256.00
2019-06-07T09:26:36.082Z,20160.00
2019-06-07T09:27:34.446Z,20064.00
2019-06-07T09:28:34.352Z,19936.00
2019-06-07T09:29:34.504Z,19744.00
2019-06-07T09:30:34.684Z,19584.00
2019-06-07T09:31:51.774Z,19488.00
2019-06-07T09:32:37.095Z,19232.00
2019-06-07T09:33:35.201Z,19104.00
2019-06-07T09:34:35.365Z,18944.00
2019-06-07T09:35:35.503Z,18816.00
2019-06-07T09:36:36.402Z,18592.00
2019-06-07T09:38:04.228Z,18432.00
2019-06-07T09:38:37.955Z,18272.00
2019-06-07T09:39:36.097Z,18304.00
2019-06-07T09:40:36.233Z,18144.00
2019-06-07T09:41:47.367Z,17952.00
2019-06-07T09:42:38.674Z,17888.00
2019-06-07T09:44:39.900Z,17824.00
2019-06-07T09:45:37.136Z,17792.00
2019-06-07T09:46:37.292Z,17728.00
2019-06-07T09:47:37.465Z,17664.00
2019-06-07T09:49:39.761Z,17664.00
2019-06-07T09:50:38.038Z,17952.00
2019-06-07T09:51:38.079Z,18080.00
2019-06-07T09:52:57.384Z,17888.00
2019-06-07T09:53:40.521Z,17952.00
2019-06-07T09:55:40.743Z,18464.00
2019-06-07T09:56:38.976Z,18272.00
2019-06-07T09:57:39.116Z,18240.00
2019-06-07T09:58:54.747Z,18016.00
2019-06-07T09:59:41.413Z,17408.00
2019-06-07T10:00:42.329Z,17120.00
2019-06-07T10:01:40.829Z,16992.00
2019-06-07T10:02:39.956Z,16704.00
2019-06-07T10:03:41.140Z,16300.00
2019-06-07T10:04:40.260Z,15860.00
2019-06-07T10:05:40.407Z,15488.00
2019-06-07T10:06:40.556Z,15432.00
2019-06-07T10:07:59.197Z,15212.00
2019-06-07T10:09:56.994Z,15176.00
2019-06-07T10:10:11.674Z,14864.00
2019-06-07T10:10:43.501Z,14788.00
2019-06-07T10:11:41.538Z,14744.00
2019-06-07T10:12:41.762Z,14524.00
2019-06-07T10:13:41.919Z,14324.00
2019-06-07T10:14:45.074Z,14152.00
2019-06-07T10:15:42.268Z,14024.00
2019-06-07T10:16:46.838Z,13632.00
2019-06-07T10:17:43.649Z,13544.00
2019-06-07T10:18:42.785Z,13524.00
2019-06-07T10:19:42.914Z,13408.00
2019-06-07T10:20:43.106Z,13164.00
2019-06-07T10:21:43.249Z,13084.00
2019-06-07T10:22:43.910Z,12980.00
2019-06-07T10:23:43.533Z,12764.00
2019-06-07T10:24:43.667Z,12576.00
2019-06-07T10:25:44.861Z,12460.00
2019-06-07T10:26:44.001Z,12324.00
2019-06-07T10:27:44.243Z,12152.00
2019-06-07T10:28:44.429Z,11952.00
2019-06-07T10:29:44.634Z,11764.00
2019-06-07T10:30:44.820Z,11620.00
2019-06-07T10:31:44.970Z,11528.00
2019-06-07T10:32:45.110Z,11452.00
2019-06-07T10:33:45.270Z,11332.00
2019-06-07T10:34:45.464Z,11236.00
2019-06-07T10:35:45.934Z,11112.00
2019-06-07T10:36:45.838Z,11088.00
2019-06-07T10:37:45.994Z,11076.00
2019-06-07T10:38:46.148Z,10968.00
2019-06-07T10:39:49.213Z,10880.00
2019-06-07T10:40:47.491Z,10828.00
2019-06-07T10:41:46.732Z,10784.00
2019-06-07T10:42:46.857Z,10736.00
2019-06-07T10:43:46.992Z,10640.00
2019-06-07T10:44:47.140Z,10472.00
2019-06-07T10:45:47.289Z,10272.00
2019-06-07T10:46:47.456Z,10100.00
2019-06-07T10:47:47.628Z,10076.00
2019-06-07T10:48:47.789Z,9992.00
2019-06-07T10:49:47.945Z,9916.00
2019-06-07T10:50:48.920Z,9828.00
2019-06-07T10:51:48.285Z,9680.00
2019-06-07T10:52:48.944Z,9584.00
2019-06-07T10:53:48.580Z,9512.00
2019-06-07T10:54:48.735Z,9452.00
2019-06-07T10:55:48.907Z,9348.00
2019-06-07T10:56:49.112Z,9200.00
2019-06-07T10:57:49.305Z,9092.00
2019-06-07T10:58:49.435Z,9020.00
2019-06-07T10:59:49.601Z,8984.00
2019-06-07T11:00:50.419Z,8940.00
2019-06-07T11:01:49.940Z,8904.00
2019-06-07T11:02:50.111Z,8868.00
2019-06-07T11:03:50.283Z,8948.00
2019-06-07T11:04:50.460Z,8916.00
2019-06-07T11:05:50.652Z,8920.00
2019-06-07T11:06:50.855Z,8824.00
2019-06-07T11:07:51.221Z,8720.00
2019-06-07T11:08:51.237Z,8624.00
2019-06-07T11:10:05.628Z,8540.00
2019-06-07T11:10:53.509Z,8484.00
2019-06-07T11:11:51.744Z,8380.00
2019-06-07T11:12:52.422Z,8324.00
2019-06-07T11:13:52.639Z,8288.00
2019-06-07T11:14:53.253Z,8304.00
2019-06-07T11:15:52.400Z,8288.00
2019-06-07T11:16:52.586Z,8204.00
2019-06-07T11:17:52.790Z,8108.00
2019-06-07T11:18:52.970Z,8012.00
2019-06-07T11:19:53.174Z,7896.00
2019-06-07T11:20:54.329Z,7716.00
2019-06-07T11:21:54.444Z,7568.00
2019-06-07T11:22:53.609Z,7408.00
2019-06-07T11:23:53.776Z,7296.00
2019-06-07T11:24:53.963Z,7216.00
2019-06-07T11:25:54.448Z,7124.00
2019-06-07T11:26:54.354Z,7024.00
2019-06-07T11:27:54.504Z,6928.00
2019-06-07T11:28:54.665Z,6824.00
2019-06-07T11:29:54.831Z,6732.00
2019-06-07T11:30:55.058Z,6612.00
2019-06-07T11:31:55.221Z,6532.00
2019-06-07T11:32:55.387Z,6448.00
2019-06-07T11:33:55.512Z,6396.00
2019-06-07T11:34:55.651Z,6328.00
2019-06-07T11:35:55.819Z,6292.00
2019-06-07T11:36:55.989Z,6272.00
2019-06-07T11:37:56.138Z,6204.00
2019-06-07T11:38:56.280Z,6188.00
2019-06-07T11:39:56.411Z,6180.00
2019-06-07T11:40:56.597Z,6140.00
2019-06-07T11:41:56.758Z,6140.00
2019-06-07T11:42:56.924Z,6116.00
2019-06-07T11:43:57.085Z,6092.00
2019-06-07T11:44:57.464Z,6076.00
2019-06-07T11:45:58.427Z,6080.00
2019-06-07T11:46:57.525Z,5956.00
2019-06-07T11:47:59.847Z,5980.00
2019-06-07T11:48:58.882Z,5976.00
2019-06-07T11:49:58.120Z,5996.00
2019-06-07T11:50:58.277Z,5996.00
2019-06-07T11:51:58.455Z,5980.00
2019-06-07T11:52:59.451Z,5980.00
2019-06-07T11:53:58.806Z,5916.00
2019-06-07T11:54:58.950Z,5940.00
2019-06-07T11:55:59.236Z,5936.00
2019-06-07T11:56:59.418Z,5936.00
2019-06-07T11:57:59.544Z,5932.00
2019-06-07T11:58:59.704Z,5952.00
2019-06-07T11:59:59.834Z,5972.00
2019-06-07T12:00:59.953Z,5996.00
2019-06-07T12:02:00.086Z,6024.00
2019-06-07T12:03:00.266Z,6044.00
2019-06-07T12:04:00.455Z,6072.00
2019-06-07T12:05:00.637Z,6088.00
2019-06-07T12:06:00.803Z,6112.00
2019-06-07T12:07:00.986Z,6132.00
2019-06-07T12:08:01.195Z,6132.00
2019-06-07T12:09:01.317Z,6160.00
2019-06-07T12:10:01.447Z,6188.00
2019-06-07T12:11:01.585Z,6208.00
2019-06-07T12:12:01.751Z,6208.00
2019-06-07T12:13:01.928Z,6548.00
2019-06-07T12:14:02.085Z,6564.00
2019-06-07T12:15:02.236Z,6592.00
2019-06-07T12:16:02.464Z,6632.00
2019-06-07T12:17:02.593Z,6660.00
2019-06-07T12:18:02.756Z,6688.00
2019-06-07T12:19:02.914Z,6708.00
2019-06-07T12:20:03.240Z,6748.00
2019-06-07T12:21:03.241Z,6784.00